sensor_id;sensor_type;location;lat;lon;timestamp;temperature;humidity
66598;DHT22;57424;53.128;6.406;2024-03-07T00:02:10;12.20;67.10
66598;DHT22;57424;53.128;6.406;2024-03-07T00:04:36;12.20;67.10
66598;DHT22;57424;53.128;6.406;2024-03-07T00:07:03;12.20;67.00
66598;DHT22;57424;53.128;6.406;2024-03-07T00:09:33;12.20;67.00
66598;DHT22;57424;53.128;6.406;2024-03-07T00:12:03;12.10;66.90
66598;DHT22;57424;53.128;6.406;2024-03-07T00:14:29;12.20;67.00
66598;DHT22;57424;53.128;6.406;2024-03-07T00:16:56;12.10;66.90
66598;DHT22;57424;53.128;6.406;2024-03-07T00:19:22;12.10;66.90
66598;DHT22;57424;53.128;6.406;2024-03-07T00:21:51;12.10;66.90
66598;DHT22;57424;53.128;6.406;2024-03-07T00:24:16;12.10;67.00
66598;DHT22;57424;53.128;6.406;2024-03-07T00:26:42;12.10;66.90
66598;DHT22;57424;53.128;6.406;2024-03-07T00:29:08;12.10;66.90
66598;DHT22;57424;53.128;6.406;2024-03-07T00:31:33;12.10;66.90
66598;DHT22;57424;53.128;6.406;2024-03-07T00:33:59;12.00;66.80
66598;DHT22;57424;53.128;6.406;2024-03-07T00:36:25;12.00;66.80
66598;DHT22;57424;53.128;6.406;2024-03-07T00:38:54;12.00;66.80
66598;DHT22;57424;53.128;6.406;2024-03-07T00:41:19;12.00;66.70
66598;DHT22;57424;53.128;6.406;2024-03-07T00:43:46;12.00;66.70
66598;DHT22;57424;53.128;6.406;2024-03-07T00:46:12;12.00;66.70
66598;DHT22;57424;53.128;6.406;2024-03-07T00:48:37;12.00;66.70
66598;DHT22;57424;53.128;6.406;2024-03-07T00:51:04;12.00;66.80
66598;DHT22;57424;53.128;6.406;2024-03-07T00:53:30;12.00;66.70
66598;DHT22;57424;53.128;6.406;2024-03-07T00:55:56;11.90;66.60
66598;DHT22;57424;53.128;6.406;2024-03-07T00:58:22;11.90;66.60
66598;DHT22;57424;53.128;6.406;2024-03-07T01:00:47;11.90;66.60
66598;DHT22;57424;53.128;6.406;2024-03-07T01:03:13;11.90;66.60
66598;DHT22;57424;53.128;6.406;2024-03-07T01:05:43;11.90;66.60
66598;DHT22;57424;53.128;6.406;2024-03-07T01:08:09;11.90;66.50
66598;DHT22;57424;53.128;6.406;2024-03-07T01:10:35;11.90;66.50
66598;DHT22;57424;53.128;6.406;2024-03-07T01:13:01;11.90;66.50
66598;DHT22;57424;53.128;6.406;2024-03-07T01:15:28;11.90;66.50
66598;DHT22;57424;53.128;6.406;2024-03-07T01:17:54;11.90;66.50
66598;DHT22;57424;53.128;6.406;2024-03-07T01:20:20;11.80;66.40
66598;DHT22;57424;53.128;6.406;2024-03-07T01:22:46;11.80;66.40
66598;DHT22;57424;53.128;6.406;2024-03-07T01:25:12;11.80;66.50
66598;DHT22;57424;53.128;6.406;2024-03-07T01:27:40;11.80;66.40
66598;DHT22;57424;53.128;6.406;2024-03-07T01:30:06;11.80;66.40
66598;DHT22;57424;53.128;6.406;2024-03-07T01:32:33;11.80;66.40
66598;DHT22;57424;53.128;6.406;2024-03-07T01:34:59;11.70;66.30
66598;DHT22;57424;53.128;6.406;2024-03-07T01:37:25;11.80;66.40
66598;DHT22;57424;53.128;6.406;2024-03-07T01:39:50;11.70;66.30
66598;DHT22;57424;53.128;6.406;2024-03-07T01:42:16;11.70;66.30
66598;DHT22;57424;53.128;6.406;2024-03-07T01:44:41;11.70;66.30
66598;DHT22;57424;53.128;6.406;2024-03-07T01:47:09;11.70;66.30
66598;DHT22;57424;53.128;6.406;2024-03-07T01:49:35;11.70;66.20
66598;DHT22;57424;53.128;6.406;2024-03-07T01:52:01;11.70;66.20
66598;DHT22;57424;53.128;6.406;2024-03-07T01:54:30;11.70;66.20
66598;DHT22;57424;53.128;6.406;2024-03-07T01:56:56;11.70;66.20
66598;DHT22;57424;53.128;6.406;2024-03-07T01:59:22;11.70;66.20
66598;DHT22;57424;53.128;6.406;2024-03-07T02:01:48;11.60;66.20
66598;DHT22;57424;53.128;6.406;2024-03-07T02:04:13;11.60;66.20
66598;DHT22;57424;53.128;6.406;2024-03-07T02:06:40;11.60;66.20
66598;DHT22;57424;53.128;6.406;2024-03-07T02:09:06;11.60;66.20
66598;DHT22;57424;53.128;6.406;2024-03-07T02:11:32;11.60;66.20
66598;DHT22;57424;53.128;6.406;2024-03-07T02:13:58;11.60;66.20
66598;DHT22;57424;53.128;6.406;2024-03-07T02:16:24;11.60;66.10
66598;DHT22;57424;53.128;6.406;2024-03-07T02:18:50;11.60;66.10
66598;DHT22;57424;53.128;6.406;2024-03-07T02:21:16;11.60;66.10
66598;DHT22;57424;53.128;6.406;2024-03-07T02:23:42;11.60;66.10
66598;DHT22;57424;53.128;6.406;2024-03-07T02:26:07;11.50;66.00
66598;DHT22;57424;53.128;6.406;2024-03-07T02:28:34;11.50;66.00
66598;DHT22;57424;53.128;6.406;2024-03-07T02:31:00;11.50;66.00
66598;DHT22;57424;53.128;6.406;2024-03-07T02:33:26;11.50;66.00
66598;DHT22;57424;53.128;6.406;2024-03-07T02:35:51;11.50;65.90
66598;DHT22;57424;53.128;6.406;2024-03-07T02:38:18;11.50;65.90
66598;DHT22;57424;53.128;6.406;2024-03-07T02:40:43;11.40;65.90
66598;DHT22;57424;53.128;6.406;2024-03-07T02:43:09;11.50;66.00
66598;DHT22;57424;53.128;6.406;2024-03-07T02:45:34;11.40;65.90
66598;DHT22;57424;53.128;6.406;2024-03-07T02:48:00;11.40;65.90
66598;DHT22;57424;53.128;6.406;2024-03-07T02:50:25;11.40;65.90
66598;DHT22;57424;53.128;6.406;2024-03-07T02:52:51;11.40;65.90
66598;DHT22;57424;53.128;6.406;2024-03-07T02:55:18;11.40;66.00
66598;DHT22;57424;53.128;6.406;2024-03-07T02:57:44;11.40;65.90
66598;DHT22;57424;53.128;6.406;2024-03-07T03:00:11;11.40;65.90
66598;DHT22;57424;53.128;6.406;2024-03-07T03:02:47;11.40;65.80
66598;DHT22;57424;53.128;6.406;2024-03-07T03:05:13;11.30;65.80
66598;DHT22;57424;53.128;6.406;2024-03-07T03:07:40;11.30;65.80
66598;DHT22;57424;53.128;6.406;2024-03-07T03:10:06;11.30;65.80
66598;DHT22;57424;53.128;6.406;2024-03-07T03:12:38;11.30;65.80
66598;DHT22;57424;53.128;6.406;2024-03-07T03:15:07;11.30;65.80
66598;DHT22;57424;53.128;6.406;2024-03-07T03:17:33;11.30;65.80
66598;DHT22;57424;53.128;6.406;2024-03-07T03:19:59;11.20;65.80
66598;DHT22;57424;53.128;6.406;2024-03-07T03:22:24;11.20;65.70
66598;DHT22;57424;53.128;6.406;2024-03-07T03:24:52;11.20;65.70
66598;DHT22;57424;53.128;6.406;2024-03-07T03:27:21;11.20;65.70
66598;DHT22;57424;53.128;6.406;2024-03-07T03:29:46;11.20;65.70
66598;DHT22;57424;53.128;6.406;2024-03-07T03:32:13;11.20;65.70
66598;DHT22;57424;53.128;6.406;2024-03-07T03:34:39;11.20;65.60
66598;DHT22;57424;53.128;6.406;2024-03-07T03:37:04;11.20;65.60
66598;DHT22;57424;53.128;6.406;2024-03-07T03:39:30;11.20;65.60
66598;DHT22;57424;53.128;6.406;2024-03-07T03:41:55;11.20;65.70
66598;DHT22;57424;53.128;6.406;2024-03-07T03:44:21;11.10;65.50
66598;DHT22;57424;53.128;6.406;2024-03-07T03:46:46;11.10;65.50
66598;DHT22;57424;53.128;6.406;2024-03-07T03:49:12;11.10;65.50
66598;DHT22;57424;53.128;6.406;2024-03-07T03:51:37;11.10;65.60
66598;DHT22;57424;53.128;6.406;2024-03-07T03:54:03;11.10;65.60
66598;DHT22;57424;53.128;6.406;2024-03-07T03:56:29;11.10;65.60
66598;DHT22;57424;53.128;6.406;2024-03-07T03:58:54;11.10;65.50
66598;DHT22;57424;53.128;6.406;2024-03-07T04:01:20;11.10;65.50
66598;DHT22;57424;53.128;6.406;2024-03-07T04:03:45;11.00;65.40
66598;DHT22;57424;53.128;6.406;2024-03-07T04:06:14;11.00;65.30
66598;DHT22;57424;53.128;6.406;2024-03-07T04:08:39;11.00;66.00
66598;DHT22;57424;53.128;6.406;2024-03-07T04:11:05;11.00;65.40
66598;DHT22;57424;53.128;6.406;2024-03-07T04:13:30;11.00;65.40
66598;DHT22;57424;53.128;6.406;2024-03-07T04:15:57;11.00;65.40
66598;DHT22;57424;53.128;6.406;2024-03-07T04:18:23;11.00;65.30
66598;DHT22;57424;53.128;6.406;2024-03-07T04:20:48;11.00;65.30
66598;DHT22;57424;53.128;6.406;2024-03-07T04:23:14;11.00;65.30
66598;DHT22;57424;53.128;6.406;2024-03-07T04:25:40;11.00;65.30
66598;DHT22;57424;53.128;6.406;2024-03-07T04:28:06;10.90;65.30
66598;DHT22;57424;53.128;6.406;2024-03-07T04:30:32;10.90;65.30
66598;DHT22;57424;53.128;6.406;2024-03-07T04:32:57;10.90;65.30
66598;DHT22;57424;53.128;6.406;2024-03-07T04:35:24;10.90;65.20
66598;DHT22;57424;53.128;6.406;2024-03-07T04:37:49;10.90;65.20
66598;DHT22;57424;53.128;6.406;2024-03-07T04:40:15;10.90;65.20
66598;DHT22;57424;53.128;6.406;2024-03-07T04:42:50;10.90;65.20
66598;DHT22;57424;53.128;6.406;2024-03-07T04:45:16;10.90;65.10
66598;DHT22;57424;53.128;6.406;2024-03-07T04:47:43;10.80;65.10
66598;DHT22;57424;53.128;6.406;2024-03-07T04:50:10;10.80;65.10
66598;DHT22;57424;53.128;6.406;2024-03-07T04:52:37;10.80;65.10
66598;DHT22;57424;53.128;6.406;2024-03-07T04:55:05;10.80;65.10
66598;DHT22;57424;53.128;6.406;2024-03-07T04:57:30;10.80;65.10
66598;DHT22;57424;53.128;6.406;2024-03-07T04:59:56;10.80;65.00
66598;DHT22;57424;53.128;6.406;2024-03-07T05:02:22;10.80;65.00
66598;DHT22;57424;53.128;6.406;2024-03-07T05:04:48;10.80;65.00
66598;DHT22;57424;53.128;6.406;2024-03-07T05:07:16;10.70;64.90
66598;DHT22;57424;53.128;6.406;2024-03-07T05:09:41;10.70;64.90
66598;DHT22;57424;53.128;6.406;2024-03-07T05:12:07;10.70;64.90
66598;DHT22;57424;53.128;6.406;2024-03-07T05:14:33;10.70;64.90
66598;DHT22;57424;53.128;6.406;2024-03-07T05:16:58;10.70;65.50
66598;DHT22;57424;53.128;6.406;2024-03-07T05:19:31;10.70;64.90
66598;DHT22;57424;53.128;6.406;2024-03-07T05:21:57;10.70;64.90
66598;DHT22;57424;53.128;6.406;2024-03-07T05:24:23;10.70;64.90
66598;DHT22;57424;53.128;6.406;2024-03-07T05:26:49;10.70;64.90
66598;DHT22;57424;53.128;6.406;2024-03-07T05:29:15;10.60;64.80
66598;DHT22;57424;53.128;6.406;2024-03-07T05:31:43;10.60;64.80
66598;DHT22;57424;53.128;6.406;2024-03-07T05:34:17;10.60;64.80
66598;DHT22;57424;53.128;6.406;2024-03-07T05:36:48;10.60;64.90
66598;DHT22;57424;53.128;6.406;2024-03-07T05:39:15;10.60;64.80
66598;DHT22;57424;53.128;6.406;2024-03-07T05:41:42;10.60;64.90
66598;DHT22;57424;53.128;6.406;2024-03-07T05:44:08;10.60;64.80
66598;DHT22;57424;53.128;6.406;2024-03-07T05:46:41;10.60;64.80
66598;DHT22;57424;53.128;6.406;2024-03-07T05:49:11;10.60;64.80
66598;DHT22;57424;53.128;6.406;2024-03-07T05:51:37;10.50;64.70
66598;DHT22;57424;53.128;6.406;2024-03-07T05:54:03;10.50;64.70
66598;DHT22;57424;53.128;6.406;2024-03-07T05:56:33;10.60;64.70
66598;DHT22;57424;53.128;6.406;2024-03-07T05:59:04;10.50;64.70
66598;DHT22;57424;53.128;6.406;2024-03-07T06:01:31;10.50;64.70
66598;DHT22;57424;53.128;6.406;2024-03-07T06:03:58;10.50;64.70
66598;DHT22;57424;53.128;6.406;2024-03-07T06:06:25;10.50;64.70
66598;DHT22;57424;53.128;6.406;2024-03-07T06:08:50;10.50;64.70
66598;DHT22;57424;53.128;6.406;2024-03-07T06:11:16;10.50;64.70
66598;DHT22;57424;53.128;6.406;2024-03-07T06:13:47;10.50;64.70
66598;DHT22;57424;53.128;6.406;2024-03-07T06:16:12;10.50;64.70
66598;DHT22;57424;53.128;6.406;2024-03-07T06:18:40;10.50;64.70
66598;DHT22;57424;53.128;6.406;2024-03-07T06:21:05;10.50;64.70
66598;DHT22;57424;53.128;6.406;2024-03-07T06:23:31;10.50;64.70
66598;DHT22;57424;53.128;6.406;2024-03-07T06:25:58;10.50;64.70
66598;DHT22;57424;53.128;6.406;2024-03-07T06:28:25;10.50;64.80
66598;DHT22;57424;53.128;6.406;2024-03-07T06:30:50;10.40;64.70
66598;DHT22;57424;53.128;6.406;2024-03-07T06:33:16;10.50;64.80
66598;DHT22;57424;53.128;6.406;2024-03-07T06:35:42;10.50;64.80
66598;DHT22;57424;53.128;6.406;2024-03-07T06:38:09;10.50;64.80
66598;DHT22;57424;53.128;6.406;2024-03-07T06:40:36;10.50;64.90
66598;DHT22;57424;53.128;6.406;2024-03-07T06:43:02;10.50;65.50
66598;DHT22;57424;53.128;6.406;2024-03-07T06:45:35;10.50;64.80
66598;DHT22;57424;53.128;6.406;2024-03-07T06:48:05;10.50;64.80
66598;DHT22;57424;53.128;6.406;2024-03-07T06:50:33;10.50;64.80
66598;DHT22;57424;53.128;6.406;2024-03-07T06:52:59;10.50;64.80
66598;DHT22;57424;53.128;6.406;2024-03-07T06:55:25;10.50;64.90
66598;DHT22;57424;53.128;6.406;2024-03-07T06:57:50;10.50;64.80
66598;DHT22;57424;53.128;6.406;2024-03-07T07:00:16;10.50;64.80
66598;DHT22;57424;53.128;6.406;2024-03-07T07:02:45;10.50;64.80
66598;DHT22;57424;53.128;6.406;2024-03-07T07:05:12;10.50;64.90
66598;DHT22;57424;53.128;6.406;2024-03-07T07:07:38;10.50;64.90
66598;DHT22;57424;53.128;6.406;2024-03-07T07:10:04;10.50;64.90
66598;DHT22;57424;53.128;6.406;2024-03-07T07:12:33;10.50;64.90
66598;DHT22;57424;53.128;6.406;2024-03-07T07:14:58;10.50;64.90
66598;DHT22;57424;53.128;6.406;2024-03-07T07:17:24;10.50;65.00
66598;DHT22;57424;53.128;6.406;2024-03-07T07:19:50;10.50;65.00
66598;DHT22;57424;53.128;6.406;2024-03-07T07:22:18;10.50;65.10
66598;DHT22;57424;53.128;6.406;2024-03-07T07:24:43;10.50;65.10
66598;DHT22;57424;53.128;6.406;2024-03-07T07:27:09;10.50;65.10
66598;DHT22;57424;53.128;6.406;2024-03-07T07:29:35;10.50;65.10
66598;DHT22;57424;53.128;6.406;2024-03-07T07:32:00;10.60;65.10
66598;DHT22;57424;53.128;6.406;2024-03-07T07:34:26;10.60;65.10
66598;DHT22;57424;53.128;6.406;2024-03-07T07:36:51;10.60;65.20
66598;DHT22;57424;53.128;6.406;2024-03-07T07:39:18;10.60;65.20
66598;DHT22;57424;53.128;6.406;2024-03-07T07:41:44;10.60;65.20
66598;DHT22;57424;53.128;6.406;2024-03-07T07:44:09;10.60;65.20
66598;DHT22;57424;53.128;6.406;2024-03-07T07:46:35;10.60;65.30
66598;DHT22;57424;53.128;6.406;2024-03-07T07:49:01;10.70;65.40
66598;DHT22;57424;53.128;6.406;2024-03-07T07:51:28;10.70;65.40
66598;DHT22;57424;53.128;6.406;2024-03-07T07:53:53;10.70;65.40
66598;DHT22;57424;53.128;6.406;2024-03-07T07:56:22;10.70;66.00
66598;DHT22;57424;53.128;6.406;2024-03-07T07:58:48;10.70;65.40
66598;DHT22;57424;53.128;6.406;2024-03-07T08:01:14;10.70;65.40
66598;DHT22;57424;53.128;6.406;2024-03-07T08:03:43;10.70;65.40
66598;DHT22;57424;53.128;6.406;2024-03-07T08:06:09;10.70;65.50
66598;DHT22;57424;53.128;6.406;2024-03-07T08:11:10;10.80;65.60
66598;DHT22;57424;53.128;6.406;2024-03-07T08:13:37;10.80;65.60
66598;DHT22;57424;53.128;6.406;2024-03-07T08:16:03;10.80;65.60
66598;DHT22;57424;53.128;6.406;2024-03-07T08:18:28;10.80;65.70
66598;DHT22;57424;53.128;6.406;2024-03-07T08:20:55;10.80;65.60
66598;DHT22;57424;53.128;6.406;2024-03-07T08:23:20;10.80;65.60
66598;DHT22;57424;53.128;6.406;2024-03-07T08:25:48;10.80;65.60
66598;DHT22;57424;53.128;6.406;2024-03-07T08:28:15;10.80;65.50
66598;DHT22;57424;53.128;6.406;2024-03-07T08:30:40;10.80;65.50
66598;DHT22;57424;53.128;6.406;2024-03-07T08:33:06;10.90;65.60
66598;DHT22;57424;53.128;6.406;2024-03-07T08:35:33;10.90;65.60
66598;DHT22;57424;53.128;6.406;2024-03-07T08:37:59;10.90;65.60
66598;DHT22;57424;53.128;6.406;2024-03-07T08:40:26;10.90;65.70
66598;DHT22;57424;53.128;6.406;2024-03-07T08:42:56;10.90;65.60
66598;DHT22;57424;53.128;6.406;2024-03-07T08:45:25;11.00;65.70
66598;DHT22;57424;53.128;6.406;2024-03-07T08:47:53;11.00;65.60
66598;DHT22;57424;53.128;6.406;2024-03-07T08:50:22;11.00;65.60
66598;DHT22;57424;53.128;6.406;2024-03-07T08:52:49;11.00;65.60
66598;DHT22;57424;53.128;6.406;2024-03-07T08:55:16;11.00;65.50
66598;DHT22;57424;53.128;6.406;2024-03-07T08:57:43;11.00;65.60
66598;DHT22;57424;53.128;6.406;2024-03-07T09:00:13;11.00;65.60
66598;DHT22;57424;53.128;6.406;2024-03-07T09:02:57;11.00;65.60
66598;DHT22;57424;53.128;6.406;2024-03-07T09:05:23;11.10;65.60
66598;DHT22;57424;53.128;6.406;2024-03-07T09:07:50;11.10;65.60
66598;DHT22;57424;53.128;6.406;2024-03-07T09:10:17;11.10;65.50
66598;DHT22;57424;53.128;6.406;2024-03-07T09:12:43;11.10;65.40
66598;DHT22;57424;53.128;6.406;2024-03-07T09:15:09;11.20;65.50
66598;DHT22;57424;53.128;6.406;2024-03-07T09:17:36;11.20;65.50
66598;DHT22;57424;53.128;6.406;2024-03-07T09:20:03;11.20;65.50
66598;DHT22;57424;53.128;6.406;2024-03-07T09:22:30;11.20;65.50
66598;DHT22;57424;53.128;6.406;2024-03-07T09:24:57;11.20;65.50
66598;DHT22;57424;53.128;6.406;2024-03-07T09:27:22;11.20;65.50
66598;DHT22;57424;53.128;6.406;2024-03-07T09:29:48;11.30;65.50
66598;DHT22;57424;53.128;6.406;2024-03-07T09:32:14;11.30;65.50
66598;DHT22;57424;53.128;6.406;2024-03-07T09:34:39;11.30;65.50
66598;DHT22;57424;53.128;6.406;2024-03-07T09:37:05;11.30;65.50
66598;DHT22;57424;53.128;6.406;2024-03-07T09:39:33;11.30;65.40
66598;DHT22;57424;53.128;6.406;2024-03-07T09:42:03;11.30;65.40
66598;DHT22;57424;53.128;6.406;2024-03-07T09:44:28;11.30;65.30
66598;DHT22;57424;53.128;6.406;2024-03-07T09:46:56;11.30;65.30
66598;DHT22;57424;53.128;6.406;2024-03-07T09:49:24;11.40;65.50
66598;DHT22;57424;53.128;6.406;2024-03-07T09:51:51;11.40;65.50
66598;DHT22;57424;53.128;6.406;2024-03-07T09:54:25;11.40;65.40
66598;DHT22;57424;53.128;6.406;2024-03-07T09:56:53;11.40;65.40
66598;DHT22;57424;53.128;6.406;2024-03-07T09:59:19;11.50;65.40
66598;DHT22;57424;53.128;6.406;2024-03-07T10:01:50;11.40;65.30
66598;DHT22;57424;53.128;6.406;2024-03-07T10:04:21;11.50;65.40
66598;DHT22;57424;53.128;6.406;2024-03-07T10:06:52;11.50;65.30
66598;DHT22;57424;53.128;6.406;2024-03-07T10:09:20;11.50;65.10
66598;DHT22;57424;53.128;6.406;2024-03-07T10:11:55;11.50;65.10
66598;DHT22;57424;53.128;6.406;2024-03-07T10:14:21;11.50;65.10
66598;DHT22;57424;53.128;6.406;2024-03-07T10:16:46;11.50;65.00
66598;DHT22;57424;53.128;6.406;2024-03-07T10:19:12;11.60;65.00
66598;DHT22;57424;53.128;6.406;2024-03-07T10:21:41;11.60;65.00
66598;DHT22;57424;53.128;6.406;2024-03-07T10:24:07;11.60;64.90
66598;DHT22;57424;53.128;6.406;2024-03-07T10:26:35;11.60;64.90
66598;DHT22;57424;53.128;6.406;2024-03-07T10:29:01;11.60;64.80
66598;DHT22;57424;53.128;6.406;2024-03-07T10:31:33;11.60;64.80
66598;DHT22;57424;53.128;6.406;2024-03-07T10:34:03;11.60;64.60
66598;DHT22;57424;53.128;6.406;2024-03-07T10:36:32;11.70;64.60
66598;DHT22;57424;53.128;6.406;2024-03-07T10:38:59;11.70;64.60
66598;DHT22;57424;53.128;6.406;2024-03-07T10:41:48;11.60;64.50
66598;DHT22;57424;53.128;6.406;2024-03-07T10:44:24;11.70;65.20
66598;DHT22;57424;53.128;6.406;2024-03-07T10:46:55;11.70;64.50
66598;DHT22;57424;53.128;6.406;2024-03-07T10:49:21;11.70;64.50
66598;DHT22;57424;53.128;6.406;2024-03-07T10:54:44;11.80;64.50
66598;DHT22;57424;53.128;6.406;2024-03-07T10:59:42;11.80;64.60
66598;DHT22;57424;53.128;6.406;2024-03-07T11:04:55;11.80;64.70
66598;DHT22;57424;53.128;6.406;2024-03-07T11:07:22;11.90;64.70
66598;DHT22;57424;53.128;6.406;2024-03-07T11:09:52;11.90;64.80
66598;DHT22;57424;53.128;6.406;2024-03-07T11:12:19;11.90;64.90
66598;DHT22;57424;53.128;6.406;2024-03-07T11:14:48;11.90;64.80
66598;DHT22;57424;53.128;6.406;2024-03-07T11:17:17;12.00;64.90
66598;DHT22;57424;53.128;6.406;2024-03-07T11:19:44;12.00;64.90
66598;DHT22;57424;53.128;6.406;2024-03-07T11:22:11;12.00;65.00
66598;DHT22;57424;53.128;6.406;2024-03-07T11:24:43;12.00;64.90
66598;DHT22;57424;53.128;6.406;2024-03-07T11:27:10;12.10;65.00
66598;DHT22;57424;53.128;6.406;2024-03-07T11:29:49;12.10;65.00
66598;DHT22;57424;53.128;6.406;2024-03-07T11:32:23;12.10;65.00
66598;DHT22;57424;53.128;6.406;2024-03-07T11:34:49;12.10;65.00
66598;DHT22;57424;53.128;6.406;2024-03-07T11:40:07;12.20;65.10
66598;DHT22;57424;53.128;6.406;2024-03-07T11:42:34;12.20;65.10
66598;DHT22;57424;53.128;6.406;2024-03-07T11:45:03;12.20;65.20
66598;DHT22;57424;53.128;6.406;2024-03-07T11:47:37;12.30;65.20
66598;DHT22;57424;53.128;6.406;2024-03-07T11:50:07;12.30;65.30
66598;DHT22;57424;53.128;6.406;2024-03-07T11:52:38;12.30;65.20
66598;DHT22;57424;53.128;6.406;2024-03-07T11:55:07;12.30;65.10
66598;DHT22;57424;53.128;6.406;2024-03-07T11:57:33;12.40;65.20
66598;DHT22;57424;53.128;6.406;2024-03-07T12:00:00;12.40;65.20
66598;DHT22;57424;53.128;6.406;2024-03-07T12:02:37;12.40;65.30
66598;DHT22;57424;53.128;6.406;2024-03-07T12:05:04;12.40;65.40
66598;DHT22;57424;53.128;6.406;2024-03-07T12:07:31;12.40;65.40
66598;DHT22;57424;53.128;6.406;2024-03-07T12:09:57;12.40;65.30
66598;DHT22;57424;53.128;6.406;2024-03-07T12:12:23;12.50;65.50
66598;DHT22;57424;53.128;6.406;2024-03-07T12:14:50;12.50;65.50
66598;DHT22;57424;53.128;6.406;2024-03-07T12:17:22;12.50;65.50
66598;DHT22;57424;53.128;6.406;2024-03-07T12:19:49;12.50;65.30
66598;DHT22;57424;53.128;6.406;2024-03-07T12:22:21;12.50;65.30
66598;DHT22;57424;53.128;6.406;2024-03-07T12:25:02;12.60;65.30
66598;DHT22;57424;53.128;6.406;2024-03-07T12:27:28;12.60;65.20
66598;DHT22;57424;53.128;6.406;2024-03-07T12:29:55;12.60;65.20
66598;DHT22;57424;53.128;6.406;2024-03-07T12:32:20;12.60;65.20
66598;DHT22;57424;53.128;6.406;2024-03-07T12:34:46;12.60;65.10
66598;DHT22;57424;53.128;6.406;2024-03-07T12:37:15;12.60;65.00
66598;DHT22;57424;53.128;6.406;2024-03-07T12:39:42;12.60;65.00
66598;DHT22;57424;53.128;6.406;2024-03-07T12:42:24;12.60;65.00
66598;DHT22;57424;53.128;6.406;2024-03-07T12:44:50;12.70;65.10
66598;DHT22;57424;53.128;6.406;2024-03-07T12:47:16;12.70;65.00
66598;DHT22;57424;53.128;6.406;2024-03-07T12:49:43;12.70;65.10
66598;DHT22;57424;53.128;6.406;2024-03-07T12:52:09;12.70;65.80
66598;DHT22;57424;53.128;6.406;2024-03-07T12:54:36;12.70;65.10
66598;DHT22;57424;53.128;6.406;2024-03-07T12:57:06;12.80;65.20
66598;DHT22;57424;53.128;6.406;2024-03-07T12:59:34;12.80;65.20
66598;DHT22;57424;53.128;6.406;2024-03-07T13:02:03;12.80;65.20
66598;DHT22;57424;53.128;6.406;2024-03-07T13:04:29;12.80;65.10
66598;DHT22;57424;53.128;6.406;2024-03-07T13:06:55;12.80;65.10
66598;DHT22;57424;53.128;6.406;2024-03-07T13:09:25;12.90;65.20
66598;DHT22;57424;53.128;6.406;2024-03-07T13:11:54;12.80;65.20
66598;DHT22;57424;53.128;6.406;2024-03-07T13:14:19;12.80;65.30
66598;DHT22;57424;53.128;6.406;2024-03-07T13:16:45;12.90;65.20
66598;DHT22;57424;53.128;6.406;2024-03-07T13:19:11;12.90;65.20
66598;DHT22;57424;53.128;6.406;2024-03-07T13:21:38;12.90;65.30
66598;DHT22;57424;53.128;6.406;2024-03-07T13:24:05;12.90;65.30
66598;DHT22;57424;53.128;6.406;2024-03-07T13:26:30;12.80;65.30
66598;DHT22;57424;53.128;6.406;2024-03-07T13:28:57;12.80;65.20
66598;DHT22;57424;53.128;6.406;2024-03-07T13:31:27;12.80;65.20
66598;DHT22;57424;53.128;6.406;2024-03-07T13:33:54;12.80;65.10
66598;DHT22;57424;53.128;6.406;2024-03-07T13:36:20;12.80;65.20
66598;DHT22;57424;53.128;6.406;2024-03-07T13:38:51;12.80;65.20
66598;DHT22;57424;53.128;6.406;2024-03-07T13:41:19;12.80;65.30
66598;DHT22;57424;53.128;6.406;2024-03-07T13:43:54;12.80;65.40
66598;DHT22;57424;53.128;6.406;2024-03-07T13:46:22;12.80;65.30
66598;DHT22;57424;53.128;6.406;2024-03-07T13:48:48;12.80;65.40
66598;DHT22;57424;53.128;6.406;2024-03-07T13:51:13;12.80;65.40
66598;DHT22;57424;53.128;6.406;2024-03-07T13:53:41;12.80;65.50
66598;DHT22;57424;53.128;6.406;2024-03-07T14:07:08;12.80;65.60
66598;DHT22;57424;53.128;6.406;2024-03-07T14:10:04;12.80;65.60
66598;DHT22;57424;53.128;6.406;2024-03-07T14:27:32;12.80;65.40
66598;DHT22;57424;53.128;6.406;2024-03-07T14:32:57;12.80;65.30
66598;DHT22;57424;53.128;6.406;2024-03-07T14:35:39;12.80;65.30
66598;DHT22;57424;53.128;6.406;2024-03-07T14:38:54;12.80;65.30
66598;DHT22;57424;53.128;6.406;2024-03-07T14:44:09;12.80;65.30
66598;DHT22;57424;53.128;6.406;2024-03-07T14:46:36;12.80;65.30
66598;DHT22;57424;53.128;6.406;2024-03-07T14:49:02;12.80;65.40
66598;DHT22;57424;53.128;6.406;2024-03-07T14:51:28;12.80;65.30
66598;DHT22;57424;53.128;6.406;2024-03-07T14:53:53;12.80;65.40
66598;DHT22;57424;53.128;6.406;2024-03-07T14:56:19;12.80;65.40
66598;DHT22;57424;53.128;6.406;2024-03-07T14:58:48;12.80;65.40
66598;DHT22;57424;53.128;6.406;2024-03-07T15:01:14;12.80;65.40
66598;DHT22;57424;53.128;6.406;2024-03-07T15:03:40;12.80;65.40
66598;DHT22;57424;53.128;6.406;2024-03-07T15:06:10;12.80;65.40
66598;DHT22;57424;53.128;6.406;2024-03-07T15:08:40;12.80;65.40
66598;DHT22;57424;53.128;6.406;2024-03-07T15:11:11;12.80;65.50
66598;DHT22;57424;53.128;6.406;2024-03-07T15:13:42;12.80;65.50
66598;DHT22;57424;53.128;6.406;2024-03-07T15:16:08;12.80;65.60
66598;DHT22;57424;53.128;6.406;2024-03-07T15:18:34;12.80;65.60
66598;DHT22;57424;53.128;6.406;2024-03-07T15:20:59;12.80;65.60
66598;DHT22;57424;53.128;6.406;2024-03-07T15:23:25;12.80;65.50
66598;DHT22;57424;53.128;6.406;2024-03-07T15:25:51;12.80;65.50
66598;DHT22;57424;53.128;6.406;2024-03-07T15:28:16;12.80;65.60
66598;DHT22;57424;53.128;6.406;2024-03-07T15:30:42;12.80;65.60
66598;DHT22;57424;53.128;6.406;2024-03-07T15:33:08;12.80;65.70
66598;DHT22;57424;53.128;6.406;2024-03-07T15:35:34;12.80;65.70
66598;DHT22;57424;53.128;6.406;2024-03-07T15:38:00;12.80;65.70
66598;DHT22;57424;53.128;6.406;2024-03-07T15:40:26;12.80;65.70
66598;DHT22;57424;53.128;6.406;2024-03-07T15:42:56;12.80;65.70
66598;DHT22;57424;53.128;6.406;2024-03-07T15:45:23;12.80;65.80
66598;DHT22;57424;53.128;6.406;2024-03-07T15:48:00;12.80;65.70
66598;DHT22;57424;53.128;6.406;2024-03-07T15:50:30;12.80;65.70
66598;DHT22;57424;53.128;6.406;2024-03-07T15:52:57;12.80;65.70
66598;DHT22;57424;53.128;6.406;2024-03-07T15:55:26;12.80;65.70
66598;DHT22;57424;53.128;6.406;2024-03-07T15:57:54;12.80;65.70
66598;DHT22;57424;53.128;6.406;2024-03-07T16:00:22;12.80;65.70
66598;DHT22;57424;53.128;6.406;2024-03-07T16:03:04;12.80;65.70
66598;DHT22;57424;53.128;6.406;2024-03-07T16:05:34;12.80;65.80
66598;DHT22;57424;53.128;6.406;2024-03-07T16:08:01;12.80;65.70
66598;DHT22;57424;53.128;6.406;2024-03-07T16:10:35;12.80;65.70
66598;DHT22;57424;53.128;6.406;2024-03-07T16:13:03;12.80;65.70
66598;DHT22;57424;53.128;6.406;2024-03-07T16:15:33;12.80;65.80
66598;DHT22;57424;53.128;6.406;2024-03-07T16:17:59;12.80;65.90